sensor_id;sensor_type;location;lat;lon;timestamp;pressure;altitude;pressure_sealevel;temperature;humidity
33163;BME280;29282;45.656;11.302;2023-11-22T00:01:14;97860.31;;;18.04;59.72
33163;BME280;29282;45.656;11.302;2023-11-22T00:03:39;97854.84;;;18.04;59.58
33163;BME280;29282;45.656;11.302;2023-11-22T00:06:05;97860.31;;;18.04;59.49
33163;BME280;29282;45.656;11.302;2023-11-22T00:08:32;97855.97;;;18.03;59.61
33163;BME280;29282;45.656;11.302;2023-11-22T00:10:59;97862.25;;;18.03;59.41
33163;BME280;29282;45.656;11.302;2023-11-22T00:13:24;97855.97;;;18.03;59.40
33163;BME280;29282;45.656;11.302;2023-11-22T00:15:50;97848.13;;;18.01;59.57
33163;BME280;29282;45.656;11.302;2023-11-22T00:18:16;97850.03;;;18.01;59.52
33163;BME280;29282;45.656;11.302;2023-11-22T00:20:42;97850.84;;;18.01;59.46
33163;BME280;29282;45.656;11.302;2023-11-22T00:23:07;97858.25;;;18.01;59.44
33163;BME280;29282;45.656;11.302;2023-11-22T00:25:33;97853.94;;;18.00;59.46
33163;BME280;29282;45.656;11.302;2023-11-22T00:27:59;97851.19;;;18.00;59.45
33163;BME280;29282;45.656;11.302;2023-11-22T00:30:24;97856.66;;;18.00;59.32
33163;BME280;29282;45.656;11.302;2023-11-22T00:32:50;97856.66;;;18.00;59.24
33163;BME280;29282;45.656;11.302;2023-11-22T00:35:16;97857.03;;;17.98;59.18
33163;BME280;29282;45.656;11.302;2023-11-22T00:37:42;97852.66;;;17.97;59.22
33163;BME280;29282;45.656;11.302;2023-11-22T00:40:08;97854.97;;;17.95;59.32
33163;BME280;29282;45.656;11.302;2023-11-22T00:42:37;97863.97;;;17.96;59.22
33163;BME280;29282;45.656;11.302;2023-11-22T00:45:04;97868.31;;;17.97;59.26
33163;BME280;29282;45.656;11.302;2023-11-22T00:47:32;97873.34;;;17.95;59.27
33163;BME280;29282;45.656;11.302;2023-11-22T00:49:57;97869.78;;;17.94;59.31
33163;BME280;29282;45.656;11.302;2023-11-22T00:52:24;97869.78;;;17.94;59.28
33163;BME280;29282;45.656;11.302;2023-11-22T00:54:49;97868.19;;;17.93;59.32
33163;BME280;29282;45.656;11.302;2023-11-22T00:57:15;97874.81;;;17.92;59.11
33163;BME280;29282;45.656;11.302;2023-11-22T00:59:40;97870.13;;;17.93;59.02
33163;BME280;29282;45.656;11.302;2023-11-22T01:02:06;97876.78;;;17.92;59.06
33163;BME280;29282;45.656;11.302;2023-11-22T01:04:34;97874.81;;;17.92;59.03
33163;BME280;29282;45.656;11.302;2023-11-22T01:07:01;97879.16;;;17.93;59.12
33163;BME280;29282;45.656;11.302;2023-11-22T01:09:26;97874.03;;;17.92;58.96
33163;BME280;29282;45.656;11.302;2023-11-22T01:11:54;97878.38;;;17.93;59.13
33163;BME280;29282;45.656;11.302;2023-11-22T01:14:19;97882.38;;;17.95;58.82
33163;BME280;29282;45.656;11.302;2023-11-22T01:16:45;97874.16;;;17.95;58.72
33163;BME280;29282;45.656;11.302;2023-11-22T01:19:10;97861.25;;;17.96;58.86
33163;BME280;29282;45.656;11.302;2023-11-22T01:21:36;97871.53;;;17.99;58.74
33163;BME280;29282;45.656;11.302;2023-11-22T01:24:02;97870.72;;;17.98;58.73
33163;BME280;29282;45.656;11.302;2023-11-22T01:26:28;97869.22;;;18.01;58.63
33163;BME280;29282;45.656;11.302;2023-11-22T01:28:53;97869.56;;;17.99;58.74
33163;BME280;29282;45.656;11.302;2023-11-22T01:31:19;97870.03;;;18.01;58.44
33163;BME280;29282;45.656;11.302;2023-11-22T01:33:48;97864.09;;;17.99;58.53
33163;BME280;29282;45.656;11.302;2023-11-22T01:36:14;97871.97;;;18.01;58.45
33163;BME280;29282;45.656;11.302;2023-11-22T01:38:40;97866.47;;;18.01;58.51
33163;BME280;29282;45.656;11.302;2023-11-22T01:41:06;97870.72;;;17.98;58.42
33163;BME280;29282;45.656;11.302;2023-11-22T01:43:32;97867.63;;;18.00;58.52
33163;BME280;29282;45.656;11.302;2023-11-22T01:45:58;97866.84;;;17.99;58.47
33163;BME280;29282;45.656;11.302;2023-11-22T01:48:24;97862.16;;;18.00;58.37
33163;BME280;29282;45.656;11.302;2023-11-22T01:50:50;97866.03;;;17.99;58.29
33163;BME280;29282;45.656;11.302;2023-11-22T01:53:16;97866.03;;;17.99;58.33
33163;BME280;29282;45.656;11.302;2023-11-22T01:55:46;97865.69;;;18.00;58.23
33163;BME280;29282;45.656;11.302;2023-11-22T01:58:12;97870.38;;;18.00;58.39
33163;BME280;29282;45.656;11.302;2023-11-22T02:00:58;97872.31;;;17.99;58.25
33163;BME280;29282;45.656;11.302;2023-11-22T02:03:24;97874.25;;;17.99;58.33
33163;BME280;29282;45.656;11.302;2023-11-22T02:05:50;97880.88;;;17.98;58.23
33163;BME280;29282;45.656;11.302;2023-11-22T02:08:19;97877.00;;;17.99;58.19
33163;BME280;29282;45.656;11.302;2023-11-22T02:10:44;97879.75;;;17.99;58.25
33163;BME280;29282;45.656;11.302;2023-11-22T02:13:12;97875.38;;;17.98;58.24
33163;BME280;29282;45.656;11.302;2023-11-22T02:15:38;97869.91;;;17.98;58.12
33163;BME280;29282;45.656;11.302;2023-11-22T02:18:03;97865.56;;;17.97;58.28
33163;BME280;29282;45.656;11.302;2023-11-22T02:20:31;97878.13;;;17.98;58.36
33163;BME280;29282;45.656;11.302;2023-11-22T02:22:56;97875.75;;;17.96;58.22
33163;BME280;29282;45.656;11.302;2023-11-22T02:25:25;97877.31;;;17.97;58.11
33163;BME280;29282;45.656;11.302;2023-11-22T02:27:50;97879.28;;;17.97;58.13
33163;BME280;29282;45.656;11.302;2023-11-22T02:30:16;97884.31;;;17.95;58.09
33163;BME280;29282;45.656;11.302;2023-11-22T02:32:41;97884.75;;;17.97;58.22
33163;BME280;29282;45.656;11.302;2023-11-22T02:35:08;97885.13;;;17.95;57.98
33163;BME280;29282;45.656;11.302;2023-11-22T02:37:34;97879.63;;;17.95;57.97
33163;BME280;29282;45.656;11.302;2023-11-22T02:40:11;97885.13;;;17.95;57.99
33163;BME280;29282;45.656;11.302;2023-11-22T02:42:39;97884.31;;;17.95;57.88
33163;BME280;29282;45.656;11.302;2023-11-22T02:45:05;97881.56;;;17.95;57.95
33163;BME280;29282;45.656;11.302;2023-11-22T02:47:31;97896.41;;;17.94;57.94
33163;BME280;29282;45.656;11.302;2023-11-22T02:49:57;97892.88;;;17.93;58.16
33163;BME280;29282;45.656;11.302;2023-11-22T02:52:22;97890.91;;;17.94;58.03
33163;BME280;29282;45.656;11.302;2023-11-22T02:54:51;97894.00;;;17.92;58.09
33163;BME280;29282;45.656;11.302;2023-11-22T02:57:19;97890.13;;;17.93;57.86
33163;BME280;29282;45.656;11.302;2023-11-22T02:59:45;97881.91;;;17.93;57.98
33163;BME280;29282;45.656;11.302;2023-11-22T03:02:11;97883.06;;;17.92;57.93
33163;BME280;29282;45.656;11.302;2023-11-22T03:04:39;97894.00;;;17.92;57.78
33163;BME280;29282;45.656;11.302;2023-11-22T03:07:05;97898.69;;;17.92;57.96
33163;BME280;29282;45.656;11.302;2023-11-22T03:09:33;97898.69;;;17.92;57.98
33163;BME280;29282;45.656;11.302;2023-11-22T03:11:58;97900.63;;;17.91;57.82
33163;BME280;29282;45.656;11.302;2023-11-22T03:14:24;97905.78;;;17.93;57.74
33163;BME280;29282;45.656;11.302;2023-11-22T03:16:49;97906.91;;;17.92;57.78
33163;BME280;29282;45.656;11.302;2023-11-22T03:19:15;97906.56;;;17.93;57.88
33163;BME280;29282;45.656;11.302;2023-11-22T03:21:40;97904.63;;;17.94;57.66
33163;BME280;29282;45.656;11.302;2023-11-22T03:24:09;97901.44;;;17.92;57.68
33163;BME280;29282;45.656;11.302;2023-11-22T03:26:35;97910.78;;;17.91;57.81
33163;BME280;29282;45.656;11.302;2023-11-22T03:29:01;97908.03;;;17.91;57.92
33163;BME280;29282;45.656;11.302;2023-11-22T03:31:27;97894.34;;;17.91;57.82
33163;BME280;29282;45.656;11.302;2023-11-22T03:33:54;97896.28;;;17.90;57.91
33163;BME280;29282;45.656;11.302;2023-11-22T03:36:20;97895.50;;;17.90;57.82
33163;BME280;29282;45.656;11.302;2023-11-22T03:38:46;97898.22;;;17.90;57.86
33163;BME280;29282;45.656;11.302;2023-11-22T03:41:11;97902.91;;;17.89;57.81
33163;BME280;29282;45.656;11.302;2023-11-22T03:43:37;97892.28;;;17.88;57.88
33163;BME280;29282;45.656;11.302;2023-11-22T03:48:38;97891.16;;;17.89;57.69
33163;BME280;29282;45.656;11.302;2023-11-22T03:51:03;97896.63;;;17.89;57.72
33163;BME280;29282;45.656;11.302;2023-11-22T03:53:29;97893.91;;;17.89;57.68
33163;BME280;29282;45.656;11.302;2023-11-22T03:55:54;97904.06;;;17.88;57.83
33163;BME280;29282;45.656;11.302;2023-11-22T03:58:20;97898.91;;;17.87;57.81
33163;BME280;29282;45.656;11.302;2023-11-22T04:00:46;97901.66;;;17.87;57.79
33163;BME280;29282;45.656;11.302;2023-11-22T04:03:11;97896.16;;;17.87;57.58
33163;BME280;29282;45.656;11.302;2023-11-22T04:05:37;97891.03;;;17.85;57.50
33163;BME280;29282;45.656;11.302;2023-11-22T04:08:03;97893.44;;;17.87;57.56
33163;BME280;29282;45.656;11.302;2023-11-22T04:10:28;97897.31;;;17.86;57.49
33163;BME280;29282;45.656;11.302;2023-11-22T04:12:54;97901.66;;;17.87;57.48
33163;BME280;29282;45.656;11.302;2023-11-22T04:15:20;97902.78;;;17.86;57.57
33163;BME280;29282;45.656;11.302;2023-11-22T04:17:48;97898.91;;;17.87;57.59
33163;BME280;29282;45.656;11.302;2023-11-22T04:20:14;97904.38;;;17.87;57.62
33163;BME280;29282;45.656;11.302;2023-11-22T04:22:41;97907.00;;;17.83;57.81
33163;BME280;29282;45.656;11.302;2023-11-22T04:25:07;97905.53;;;17.86;57.29
33163;BME280;29282;45.656;11.302;2023-11-22T04:27:34;97906.34;;;17.86;57.59
33163;BME280;29282;45.656;11.302;2023-11-22T04:29:59;97905.53;;;17.86;57.54
33163;BME280;29282;45.656;11.302;2023-11-22T04:32:25;97902.31;;;17.83;57.67
33163;BME280;29282;45.656;11.302;2023-11-22T04:34:51;97908.28;;;17.86;57.46
33163;BME280;29282;45.656;11.302;2023-11-22T04:37:16;97913.75;;;17.86;57.47
33163;BME280;29282;45.656;11.302;2023-11-22T04:39:42;97909.41;;;17.84;57.60
33163;BME280;29282;45.656;11.302;2023-11-22T04:42:07;97911.34;;;17.84;57.39
33163;BME280;29282;45.656;11.302;2023-11-22T04:44:33;97913.28;;;17.83;57.45
33163;BME280;29282;45.656;11.302;2023-11-22T04:46:58;97917.16;;;17.82;57.52
33163;BME280;29282;45.656;11.302;2023-11-22T04:49:25;97917.97;;;17.83;57.58
33163;BME280;29282;45.656;11.302;2023-11-22T04:51:50;97917.16;;;17.82;57.32
33163;BME280;29282;45.656;11.302;2023-11-22T04:54:16;97912.50;;;17.83;57.44
33163;BME280;29282;45.656;11.302;2023-11-22T04:56:42;97919.91;;;17.82;57.33
33163;BME280;29282;45.656;11.302;2023-11-22T04:59:08;97917.97;;;17.83;57.18
33163;BME280;29282;45.656;11.302;2023-11-22T05:01:34;97918.31;;;17.81;57.37
33163;BME280;29282;45.656;11.302;2023-11-22T05:03:59;97919.91;;;17.82;57.38
33163;BME280;29282;45.656;11.302;2023-11-22T05:06:25;97922.66;;;17.82;57.31
33163;BME280;29282;45.656;11.302;2023-11-22T05:08:52;97918.31;;;17.81;57.36
33163;BME280;29282;45.656;11.302;2023-11-22T05:11:18;97925.72;;;17.81;57.39
33163;BME280;29282;45.656;11.302;2023-11-22T05:13:44;97932.03;;;17.81;57.23
33163;BME280;29282;45.656;11.302;2023-11-22T05:16:09;97930.41;;;17.80;57.38
33163;BME280;29282;45.656;11.302;2023-11-22T05:18:35;97939.09;;;17.82;57.40
33163;BME280;29282;45.656;11.302;2023-11-22T05:21:03;97943.78;;;17.82;57.26
33163;BME280;29282;45.656;11.302;2023-11-22T05:23:32;97951.22;;;17.81;57.52
33163;BME280;29282;45.656;11.302;2023-11-22T05:25:58;97940.56;;;17.80;57.37
33163;BME280;29282;45.656;11.302;2023-11-22T05:28:27;97948.00;;;17.79;57.59
33163;BME280;29282;45.656;11.302;2023-11-22T05:30:53;97952.31;;;17.80;57.55
33163;BME280;29282;45.656;11.302;2023-11-22T05:33:18;97942.16;;;17.81;57.44
33163;BME280;29282;45.656;11.302;2023-11-22T05:35:44;97951.53;;;17.80;57.54
33163;BME280;29282;45.656;11.302;2023-11-22T05:38:09;97946.03;;;17.80;57.34
33163;BME280;29282;45.656;11.302;2023-11-22T05:40:35;97951.06;;;17.78;57.22
33163;BME280;29282;45.656;11.302;2023-11-22T05:43:01;97956.22;;;17.79;57.34
33163;BME280;29282;45.656;11.302;2023-11-22T05:45:26;97964.44;;;17.79;57.24
33163;BME280;29282;45.656;11.302;2023-11-22T05:47:52;97965.22;;;17.80;57.13
33163;BME280;29282;45.656;11.302;2023-11-22T05:50:18;97964.44;;;17.79;57.36
33163;BME280;29282;45.656;11.302;2023-11-22T05:52:43;97977.34;;;17.79;57.45
33163;BME280;29282;45.656;11.302;2023-11-22T05:55:10;97984.41;;;17.80;57.23
33163;BME280;29282;45.656;11.302;2023-11-22T05:57:35;97979.28;;;17.78;57.17
33163;BME280;29282;45.656;11.302;2023-11-22T06:00:02;97976.53;;;17.78;57.10
33163;BME280;29282;45.656;11.302;2023-11-22T06:02:28;97980.06;;;17.79;57.26
33163;BME280;29282;45.656;11.302;2023-11-22T06:04:53;97985.22;;;17.80;57.26
33163;BME280;29282;45.656;11.302;2023-11-22T06:07:19;97992.88;;;17.87;57.58
33163;BME280;29282;45.656;11.302;2023-11-22T06:09:44;97994.28;;;17.93;56.83
33163;BME280;29282;45.656;11.302;2023-11-22T06:12:10;97994.88;;;17.99;56.63
33163;BME280;29282;45.656;11.302;2023-11-22T06:14:35;97997.72;;;18.02;56.75
33163;BME280;29282;45.656;11.302;2023-11-22T06:17:01;97993.16;;;18.06;56.57
33163;BME280;29282;45.656;11.302;2023-11-22T06:19:28;97992.97;;;18.12;56.40
33163;BME280;29282;45.656;11.302;2023-11-22T06:21:54;98001.19;;;18.12;56.50
33163;BME280;29282;45.656;11.302;2023-11-22T06:24:19;98000.50;;;18.15;56.45
33163;BME280;29282;45.656;11.302;2023-11-22T06:26:45;98003.38;;;18.18;56.31
33163;BME280;29282;45.656;11.302;2023-11-22T06:29:15;97999.00;;;18.17;56.39
33163;BME280;29282;45.656;11.302;2023-11-22T06:31:40;97995.94;;;18.19;56.39
33163;BME280;29282;45.656;11.302;2023-11-22T06:34:06;98000.63;;;18.18;56.41
33163;BME280;29282;45.656;11.302;2023-11-22T06:36:31;98004.97;;;18.19;56.75
33163;BME280;29282;45.656;11.302;2023-11-22T06:38:58;98004.16;;;18.19;56.53
33163;BME280;29282;45.656;11.302;2023-11-22T06:41:23;98008.84;;;18.18;56.95
33163;BME280;29282;45.656;11.302;2023-11-22T06:43:49;98013.88;;;18.16;56.41
33163;BME280;29282;45.656;11.302;2023-11-22T06:46:15;98016.59;;;18.16;56.65
33163;BME280;29282;45.656;11.302;2023-11-22T06:48:42;98020.28;;;18.20;56.28
33163;BME280;29282;45.656;11.302;2023-11-22T06:51:10;98016.41;;;18.21;56.26
33163;BME280;29282;45.656;11.302;2023-11-22T06:53:38;98018.91;;;18.26;56.14
33163;BME280;29282;45.656;11.302;2023-11-22T06:56:03;98012.44;;;18.31;55.92
33163;BME280;29282;45.656;11.302;2023-11-22T06:58:29;98023.28;;;18.40;55.83
33163;BME280;29282;45.656;11.302;2023-11-22T07:01:00;98032.91;;;18.46;55.70
33163;BME280;29282;45.656;11.302;2023-11-22T07:03:26;98035.44;;;18.51;55.54
33163;BME280;29282;45.656;11.302;2023-11-22T07:05:51;98043.66;;;18.51;55.57
33163;BME280;29282;45.656;11.302;2023-11-22T07:08:17;98043.41;;;18.56;55.89
33163;BME280;29282;45.656;11.302;2023-11-22T07:10:42;98051.66;;;18.56;55.37
33163;BME280;29282;45.656;11.302;2023-11-22T07:13:10;98052.56;;;18.60;55.55
33163;BME280;29282;45.656;11.302;2023-11-22T07:15:36;98052.56;;;18.60;55.51
33163;BME280;29282;45.656;11.302;2023-11-22T07:18:01;98053.84;;;18.63;55.49
33163;BME280;29282;45.656;11.302;2023-11-22T07:20:27;98056.25;;;18.64;55.47
33163;BME280;29282;45.656;11.302;2023-11-22T07:22:52;98062.19;;;18.66;55.54
33163;BME280;29282;45.656;11.302;2023-11-22T07:25:22;98068.81;;;18.65;55.64
33163;BME280;29282;45.656;11.302;2023-11-22T07:27:51;98072.84;;;18.68;55.58
33163;BME280;29282;45.656;11.302;2023-11-22T07:30:17;98082.31;;;18.70;55.53
33163;BME280;29282;45.656;11.302;2023-11-22T07:32:45;98082.66;;;18.69;55.89
33163;BME280;29282;45.656;11.302;2023-11-22T07:35:11;98090.09;;;18.68;55.90
33163;BME280;29282;45.656;11.302;2023-11-22T07:37:38;98097.19;;;18.69;55.74
33163;BME280;29282;45.656;11.302;2023-11-22T07:40:13;98099.91;;;18.69;55.72
33163;BME280;29282;45.656;11.302;2023-11-22T07:42:42;98115.13;;;18.67;55.78
33163;BME280;29282;45.656;11.302;2023-11-22T07:45:09;98107.91;;;18.62;56.07
33163;BME280;29282;45.656;11.302;2023-11-22T07:47:37;98114.19;;;18.63;55.83
33163;BME280;29282;45.656;11.302;2023-11-22T07:50:09;98115.78;;;18.64;55.91
33163;BME280;29282;45.656;11.302;2023-11-22T07:52:37;98118.28;;;18.44;55.76
33163;BME280;29282;45.656;11.302;2023-11-22T07:55:04;98135.44;;;18.20;53.05
33163;BME280;29282;45.656;11.302;2023-11-22T07:57:34;98126.34;;;18.07;52.90
33163;BME280;29282;45.656;11.302;2023-11-22T08:00:00;98139.44;;;18.23;53.39
33163;BME280;29282;45.656;11.302;2023-11-22T08:02:26;98140.06;;;18.41;51.49
33163;BME280;29282;45.656;11.302;2023-11-22T08:04:52;98153.03;;;18.52;51.11
33163;BME280;29282;45.656;11.302;2023-11-22T08:07:18;98156.38;;;18.58;50.63
33163;BME280;29282;45.656;11.302;2023-11-22T08:09:44;98151.34;;;18.60;50.89
33163;BME280;29282;45.656;11.302;2023-11-22T08:12:09;98155.59;;;18.58;51.33
33163;BME280;29282;45.656;11.302;2023-11-22T08:14:39;98161.06;;;18.58;50.93
33163;BME280;29282;45.656;11.302;2023-11-22T08:17:06;98165.06;;;18.60;50.58
33163;BME280;29282;45.656;11.302;2023-11-22T08:19:31;98169.44;;;18.61;50.90
33163;BME280;29282;45.656;11.302;2023-11-22T08:21:57;98177.66;;;18.61;51.14
33163;BME280;29282;45.656;11.302;2023-11-22T08:24:23;98176.03;;;18.60;51.13
33163;BME280;29282;45.656;11.302;2023-11-22T08:26:49;98182.00;;;18.62;51.48
33163;BME280;29282;45.656;11.302;2023-11-22T08:29:14;98184.75;;;18.62;51.52
33163;BME280;29282;45.656;11.302;2023-11-22T08:31:40;98198.47;;;18.62;51.72
33163;BME280;29282;45.656;11.302;2023-11-22T08:34:06;98189.75;;;18.60;51.64
33163;BME280;29282;45.656;11.302;2023-11-22T08:36:33;98191.72;;;18.60;51.58
33163;BME280;29282;45.656;11.302;2023-11-22T08:39:00;98200.72;;;18.60;51.67
33163;BME280;29282;45.656;11.302;2023-11-22T08:41:27;98210.13;;;18.59;51.72
33163;BME280;29282;45.656;11.302;2023-11-22T08:43:54;98215.59;;;18.59;51.75
33163;BME280;29282;45.656;11.302;2023-11-22T08:46:20;98218.69;;;18.58;51.82
33163;BME280;29282;45.656;11.302;2023-11-22T08:48:47;98215.97;;;18.58;51.81
33163;BME280;29282;45.656;11.302;2023-11-22T08:51:12;98220.97;;;18.55;51.99
33163;BME280;29282;45.656;11.302;2023-11-22T08:53:38;98217.41;;;18.55;52.00
33163;BME280;29282;45.656;11.302;2023-11-22T08:56:06;98216.63;;;18.54;52.18
33163;BME280;29282;45.656;11.302;2023-11-22T08:58:34;98223.22;;;18.53;52.20
33163;BME280;29282;45.656;11.302;2023-11-22T09:00:59;98222.78;;;18.51;52.18
33163;BME280;29282;45.656;11.302;2023-11-22T09:03:25;98223.59;;;18.52;52.46
33163;BME280;29282;45.656;11.302;2023-11-22T09:05:52;98229.06;;;18.52;52.45
33163;BME280;29282;45.656;11.302;2023-11-22T09:08:19;98222.78;;;18.51;52.32
33163;BME280;29282;45.656;11.302;2023-11-22T09:10:46;98233.63;;;18.48;52.78
33163;BME280;29282;45.656;11.302;2023-11-22T09:13:12;98232.13;;;18.50;52.55
33163;BME280;29282;45.656;11.302;2023-11-22T09:15:41;98236.38;;;18.48;52.90
33163;BME280;29282;45.656;11.302;2023-11-22T09:18:10;98242.00;;;18.51;52.76
33163;BME280;29282;45.656;11.302;2023-11-22T09:20:35;98243.09;;;18.50;52.89
33163;BME280;29282;45.656;11.302;2023-11-22T09:23:01;98241.19;;;18.51;52.53
33163;BME280;29282;45.656;11.302;2023-11-22T09:25:27;98243.94;;;18.51;52.62
33163;BME280;29282;45.656;11.302;2023-11-22T09:27:54;98247.13;;;18.53;52.71
33163;BME280;29282;45.656;11.302;2023-11-22T09:30:28;98249.88;;;18.53;52.50
33163;BME280;29282;45.656;11.302;2023-11-22T09:33:09;98252.97;;;18.51;52.53
33163;BME280;29282;45.656;11.302;2023-11-22T09:35:36;98260.41;;;18.51;52.49
33163;BME280;29282;45.656;11.302;2023-11-22T09:38:07;98256.81;;;18.50;52.53
33163;BME280;29282;45.656;11.302;2023-11-22T09:40:46;98252.84;;;18.48;52.67
33163;BME280;29282;45.656;11.302;2023-11-22T09:43:13;98250.09;;;18.48;52.63
33163;BME280;29282;45.656;11.302;2023-11-22T09:45:50;98250.09;;;18.48;52.58
33163;BME280;29282;45.656;11.302;2023-11-22T09:48:17;98250.88;;;18.48;52.91
33163;BME280;29282;45.656;11.302;2023-11-22T09:53:40;98249.06;;;18.52;52.49
33163;BME280;29282;45.656;11.302;2023-11-22T09:56:07;98242.78;;;18.52;52.84
33163;BME280;29282;45.656;11.302;2023-11-22T09:58:35;98242.78;;;18.52;52.51
33163;BME280;29282;45.656;11.302;2023-11-22T10:01:03;98242.66;;;18.48;53.21
33163;BME280;29282;45.656;11.302;2023-11-22T10:03:33;98237.84;;;18.45;53.20
33163;BME280;29282;45.656;11.302;2023-11-22T10:05:59;98238.16;;;18.44;52.98
33163;BME280;29282;45.656;11.302;2023-11-22T10:08:28;98231.56;;;18.45;52.95
33163;BME280;29282;45.656;11.302;2023-11-22T10:10:58;98238.16;;;18.44;53.16
33163;BME280;29282;45.656;11.302;2023-11-22T10:13:24;98238.16;;;18.44;53.93
33163;BME280;29282;45.656;11.302;2023-11-22T10:15:51;98233.94;;;18.46;52.74
33163;BME280;29282;45.656;11.302;2023-11-22T10:18:18;98246.38;;;18.44;53.09
33163;BME280;29282;45.656;11.302;2023-11-22T10:20:46;98240.91;;;18.44;53.08
33163;BME280;29282;45.656;11.302;2023-11-22T10:23:20;98237.50;;;18.47;53.14
33163;BME280;29282;45.656;11.302;2023-11-22T10:25:53;98237.38;;;18.43;53.50
33163;BME280;29282;45.656;11.302;2023-11-22T10:28:22;98236.25;;;18.44;53.31
33163;BME280;29282;45.656;11.302;2023-11-22T10:30:50;98238.16;;;18.44;53.43
33163;BME280;29282;45.656;11.302;2023-11-22T10:33:17;98233.81;;;18.43;53.63
33163;BME280;29282;45.656;11.302;2023-11-22T10:35:47;98239.66;;;18.41;54.74
33163;BME280;29282;45.656;11.302;2023-11-22T10:38:20;98239.66;;;18.41;53.52
33163;BME280;29282;45.656;11.302;2023-11-22T10:40:46;98243.88;;;18.39;53.31
33163;BME280;29282;45.656;11.302;2023-11-22T10:43:14;98245.69;;;18.35;53.42
33163;BME280;29282;45.656;11.302;2023-11-22T10:45:41;98245.19;;;18.33;53.66
33163;BME280;29282;45.656;11.302;2023-11-22T10:48:10;98248.28;;;18.31;53.78
33163;BME280;29282;45.656;11.302;2023-11-22T10:50:36;98248.13;;;18.27;53.78
33163;BME280;29282;45.656;11.302;2023-11-22T10:53:04;98248.97;;;18.28;53.64
33163;BME280;29282;45.656;11.302;2023-11-22T10:55:32;98242.19;;;18.25;53.46
33163;BME280;29282;45.656;11.302;2023-11-22T10:58:02;98249.63;;;18.25;53.43
33163;BME280;29282;45.656;11.302;2023-11-22T11:00:31;98255.44;;;18.23;53.59
33163;BME280;29282;45.656;11.302;2023-11-22T11:02:59;98262.06;;;18.22;53.53
33163;BME280;29282;45.656;11.302;2023-11-22T11:05:31;98254.97;;;18.21;53.27
33163;BME280;29282;45.656;11.302;2023-11-22T11:08:11;98258.84;;;18.20;53.17
33163;BME280;29282;45.656;11.302;2023-11-22T11:10:44;98267.84;;;18.21;53.23
33163;BME280;29282;45.656;11.302;2023-11-22T11:13:13;98267.06;;;18.20;53.28
33163;BME280;29282;45.656;11.302;2023-11-22T11:15:42;98276.44;;;18.19;53.38
33163;BME280;29282;45.656;11.302;2023-11-22T11:18:10;98278.38;;;18.19;53.22
33163;BME280;29282;45.656;11.302;2023-11-22T11:20:55;98281.44;;;18.17;53.39
33163;BME280;29282;45.656;11.302;2023-11-22T11:23:24;98274.84;;;18.18;53.24
33163;BME280;29282;45.656;11.302;2023-11-22T11:25:52;98273.81;;;18.23;53.11
33163;BME280;29282;45.656;11.302;2023-11-22T11:28:19;98271.22;;;18.26;52.92
33163;BME280;29282;45.656;11.302;2023-11-22T11:30:48;98272.16;;;18.30;52.90
33163;BME280;29282;45.656;11.302;2023-11-22T11:33:19;98279.25;;;18.31;52.85
33163;BME280;29282;45.656;11.302;2023-11-22T11:35:51;98273.09;;;18.35;52.53
33163;BME280;29282;45.656;11.302;2023-11-22T11:38:20;98274.69;;;18.36;52.54
33163;BME280;29282;45.656;11.302;2023-11-22T11:40:47;98272.91;;;18.40;52.37
33163;BME280;29282;45.656;11.302;2023-11-22T11:43:13;98277.03;;;18.46;52.27
33163;BME280;29282;45.656;11.302;2023-11-22T11:45:42;98277.97;;;18.50;52.07
33163;BME280;29282;45.656;11.302;2023-11-22T11:48:15;98280.28;;;18.48;52.08
33163;BME280;29282;45.656;11.302;2023-11-22T11:50:45;98291.69;;;18.50;52.12
33163;BME280;29282;45.656;11.302;2023-11-22T11:53:11;98299.47;;;18.48;52.38
33163;BME280;29282;45.656;11.302;2023-11-22T11:55:37;98290.56;;;18.51;52.27
33163;BME280;29282;45.656;11.302;2023-11-22T11:58:06;98304.75;;;18.53;52.47
33163;BME280;29282;45.656;11.302;2023-11-22T12:00:37;98297.44;;;18.57;52.37
33163;BME280;29282;45.656;11.302;2023-11-22T12:03:07;98305.91;;;18.73;52.00
33163;BME280;29282;45.656;11.302;2023-11-22T12:05:36;98309.38;;;18.82;51.85
33163;BME280;29282;45.656;11.302;2023-11-22T12:08:01;98315.94;;;18.90;51.66
33163;BME280;29282;45.656;11.302;2023-11-22T12:10:28;98318.59;;;18.98;51.58
33163;BME280;29282;45.656;11.302;2023-11-22T12:12:53;98317.94;;;19.01;51.72
33163;BME280;29282;45.656;11.302;2023-11-22T12:15:19;98315.75;;;19.07;51.44
33163;BME280;29282;45.656;11.302;2023-11-22T12:17:48;98320.56;;;19.10;51.42
33163;BME280;29282;45.656;11.302;2023-11-22T12:20:17;98319.09;;;19.13;51.52
33163;BME280;29282;45.656;11.302;2023-11-22T12:22:47;98323.91;;;19.16;51.39
33163;BME280;29282;45.656;11.302;2023-11-22T12:25:13;98328.25;;;19.17;51.55
33163;BME280;29282;45.656;11.302;2023-11-22T12:27:42;98317.94;;;19.14;51.62
33163;BME280;29282;45.656;11.302;2023-11-22T12:32:57;98314.84;;;19.03;53.09
33163;BME280;29282;45.656;11.302;2023-11-22T12:35:22;98312.56;;;19.05;52.28
33163;BME280;29282;45.656;11.302;2023-11-22T12:37:52;98315.19;;;19.01;53.00
33163;BME280;29282;45.656;11.302;2023-11-22T12:40:20;98325.56;;;18.96;52.62
33163;BME280;29282;45.656;11.302;2023-11-22T12:42:50;98324.41;;;18.97;53.23
33163;BME280;29282;45.656;11.302;2023-11-22T12:45:27;98326.91;;;18.90;53.24
33163;BME280;29282;45.656;11.302;2023-11-22T12:47:55;98327.94;;;18.85;53.21
33163;BME280;29282;45.656;11.302;2023-11-22T12:50:30;98332.94;;;18.83;53.29
33163;BME280;29282;45.656;11.302;2023-11-22T12:52:58;98331.00;;;18.84;53.12
33163;BME280;29282;45.656;11.302;2023-11-22T12:55:23;98336.16;;;18.85;53.13
33163;BME280;29282;45.656;11.302;2023-11-22T12:57:58;98336.84;;;18.82;53.11